Time;durP1;ratioP1;P1;durP2;ratioP2;P2;SDS_P1;SDS_P2;PMS_P1;PMS_P2;Temp;Humidity;BMP_temperature;BMP_pressure;BME280_temperature;BME280_humidity;BME280_pressure;Samples;Min_cycle;Max_cycle;Signal;HPM_P1;HPM_P2
2022/05/24 00:03:26;;;;;;;23.42;18.67;;;;;;;13.86;81.15;100042.94;5008872;28;20053;-78
2022/05/24 00:05:51;;;;;;;27.35;19.17;;;;;;;13.84;81.61;100044.78;5010162;28;20026;-78
2022/05/24 00:08:17;;;;;;;28.20;19.05;;;;;;;13.83;81.38;100045.75;5010705;28;20026;-78
2022/05/24 00:10:42;;;;;;;26.02;18.27;;;;;;;13.81;81.49;100040.59;5006656;28;20034;-78
2022/05/24 00:13:08;;;;;;;28.30;19.23;;;;;;;13.81;81.83;100032.75;5006140;28;20516;-78
2022/05/24 00:15:34;;;;;;;26.00;18.20;;;;;;;13.78;81.62;100020.69;5006968;28;20121;-78
2022/05/24 00:18:03;;;;;;;23.00;16.90;;;;;;;13.78;81.05;100019.81;5005554;28;20026;-79
2022/05/24 00:20:42;;;;;;;24.40;16.58;;;;;;;13.75;81.10;100015.63;5005061;28;20100;-78
2022/05/24 00:23:08;;;;;;;23.58;15.73;;;;;;;13.73;80.96;100022.69;5006350;28;20034;-78
2022/05/24 00:25:36;;;;;;;18.80;14.02;;;;;;;13.71;80.52;100021.91;5008135;28;20092;-78
2022/05/24 00:28:03;;;;;;;19.90;13.82;;;;;;;13.69;80.28;100021.16;5009584;28;20036;-78
2022/05/24 00:30:28;;;;;;;18.30;13.00;;;;;;;13.65;80.22;100027.47;5008478;28;20119;-78
2022/05/24 00:32:54;;;;;;;16.65;12.93;;;;;;;13.66;80.12;100035.22;5008507;28;20058;-78
2022/05/24 00:35:19;;;;;;;16.05;11.60;;;;;;;13.64;79.45;100041.47;5007856;28;20029;-78
2022/05/24 00:37:47;;;;;;;17.58;11.98;;;;;;;13.59;80.13;100044.28;5011485;28;20032;-78
2022/05/24 00:40:45;;;;;;;15.98;11.00;;;;;;;13.57;79.72;100038.34;5010208;28;20028;-78
2022/05/24 00:43:27;;;;;;;16.42;10.57;;;;;;;13.54;79.67;100033.25;5013429;28;20026;-78
2022/05/24 00:45:57;;;;;;;14.80;10.93;;;;;;;13.49;79.81;100024.81;5008941;28;20033;-78
2022/05/24 00:48:28;;;;;;;14.30;9.85;;;;;;;13.48;79.87;100030.94;5007862;28;20050;-78
2022/05/24 00:50:53;;;;;;;13.20;9.75;;;;;;;13.44;80.03;100026.78;5007730;28;20044;-78
2022/05/24 00:53:32;;;;;;;13.82;10.10;;;;;;;13.41;79.72;100026.97;5006866;28;20030;-78
2022/05/24 00:56:17;;;;;;;14.25;9.48;;;;;;;13.37;79.72;100021.00;5009857;28;20029;-78
2022/05/24 00:58:56;;;;;;;15.90;10.05;;;;;;;13.33;79.73;100029.91;5009775;28;20069;-78
2022/05/24 01:01:34;;;;;;;13.88;9.20;;;;;;;13.31;79.64;100042.22;5008577;28;20033;-78
2022/05/24 01:03:59;;;;;;;13.02;9.18;;;;;;;13.26;80.11;100039.00;5008294;28;20105;-78
2022/05/24 01:06:25;;;;;;;14.25;9.32;;;;;;;13.24;79.74;100035.63;5007102;28;20477;-78
2022/05/24 01:08:54;;;;;;;16.55;8.77;;;;;;;13.19;79.42;100043.69;5008737;28;20021;-78
2022/05/24 01:11:22;;;;;;;14.15;8.45;;;;;;;13.16;79.50;100039.44;5008986;28;20029;-78
2022/05/24 01:13:50;;;;;;;12.50;8.38;;;;;;;13.14;79.71;100033.47;5007554;28;20026;-78
2022/05/24 01:16:15;;;;;;;13.38;9.27;;;;;;;13.12;79.78;100026.63;5006226;28;20112;-78
2022/05/24 01:18:41;;;;;;;11.18;7.78;;;;;;;13.10;79.33;100020.63;5007912;28;20101;-78
2022/05/24 01:21:09;;;;;;;14.30;8.75;;;;;;;13.09;79.80;100016.31;5008833;28;20033;-78
2022/05/24 01:23:36;;;;;;;12.77;8.55;;;;;;;13.05;79.53;100021.72;5007707;28;20350;-78
2022/05/24 01:26:17;;;;;;;11.05;7.78;;;;;;;13.03;79.05;100022.69;5008847;28;20061;-78
2022/05/24 01:28:42;;;;;;;15.45;8.35;;;;;;;13.02;79.00;100023.59;5007185;28;20033;-78
2022/05/24 01:31:07;;;;;;;11.80;7.60;;;;;;;12.98;78.48;100019.47;5008257;28;20041;-78
2022/05/24 01:36:21;;;;;;;11.52;6.57;;;;;;;12.92;78.55;100019.78;5007421;28;20445;-78
2022/05/24 01:38:50;;;;;;;11.25;6.85;;;;;;;12.89;78.41;100028.63;5009902;28;20053;-78
2022/05/24 01:41:26;;;;;;;11.65;6.55;;;;;;;12.86;78.23;100032.19;5010982;28;20113;-78
2022/05/24 01:43:54;;;;;;;10.65;5.93;;;;;;;12.83;78.13;100026.28;5008614;28;20061;-78
2022/05/24 01:46:26;;;;;;;12.75;5.72;;;;;;;12.80;77.74;100031.66;5006441;28;20037;-79
2022/05/24 01:48:56;;;;;;;11.80;6.32;;;;;;;12.76;77.98;100036.19;5006619;28;20056;-78
2022/05/24 01:51:28;;;;;;;7.88;5.05;;;;;;;12.73;77.81;100028.50;5005213;28;20121;-78
2022/05/24 01:53:58;;;;;;;8.43;4.70;;;;;;;12.71;77.41;100028.56;5007171;28;20420;-78
2022/05/24 01:56:30;;;;;;;8.48;4.70;;;;;;;12.68;77.63;100027.84;5005168;28;20018;-78
2022/05/24 01:58:58;;;;;;;8.77;4.40;;;;;;;12.65;77.39;100033.22;5005824;28;20668;-78
2022/05/24 02:01:35;;;;;;;9.15;4.40;;;;;;;12.63;77.23;100024.63;5012169;28;20072;-78
2022/05/24 02:04:01;;;;;;;10.00;4.15;;;;;;;12.60;77.21;100020.38;5008436;28;20036;-78
2022/05/24 02:06:28;;;;;;;7.70;3.90;;;;;;;12.58;77.22;100022.22;5006498;28;20030;-78
2022/05/24 02:08:54;;;;;;;8.30;3.85;;;;;;;12.56;76.90;100034.50;5009050;28;20052;-78
2022/05/24 02:11:28;;;;;;;9.38;4.25;;;;;;;12.52;77.08;100025.97;5007369;28;20048;-79
2022/05/24 02:14:00;;;;;;;9.80;3.95;;;;;;;12.51;77.13;100028.66;5005642;28;20022;-78
2022/05/24 02:16:29;;;;;;;7.35;3.50;;;;;;;12.48;76.64;100032.25;5005855;28;20395;-78
2022/05/24 02:18:55;;;;;;;5.75;2.97;;;;;;;12.45;76.67;100048.06;5006868;28;20026;-78
2022/05/24 02:21:21;;;;;;;6.40;3.00;;;;;;;12.43;76.53;100049.91;5006634;28;20499;-78
2022/05/24 02:23:49;;;;;;;5.88;2.92;;;;;;;12.40;76.42;100048.25;5006496;28;20477;-77
2022/05/24 02:26:16;;;;;;;6.80;3.13;;;;;;;12.37;76.64;100045.81;5009868;28;20473;-78
2022/05/24 02:28:42;;;;;;;5.88;2.80;;;;;;;12.36;76.62;100048.47;5012719;28;20032;-78
2022/05/24 02:31:12;;;;;;;5.85;3.05;;;;;;;12.34;76.68;100051.16;5011342;28;20033;-78
2022/05/24 02:33:37;;;;;;;7.75;2.95;;;;;;;12.33;76.19;100048.63;5005615;28;20034;-79
2022/05/24 02:36:03;;;;;;;7.07;3.10;;;;;;;12.33;76.34;100053.81;5008255;28;20056;-78
2022/05/24 02:38:29;;;;;;;7.22;2.70;;;;;;;12.29;76.11;100046.16;5006424;28;20025;-78
2022/05/24 02:43:38;;;;;;;6.90;2.63;;;;;;;12.27;76.43;100034.09;5007146;28;20045;-78
2022/05/24 02:46:05;;;;;;;5.22;2.25;;;;;;;12.26;76.25;100037.63;5004986;28;20029;-78
2022/05/24 02:48:30;;;;;;;4.75;2.10;;;;;;;12.24;75.82;100035.09;5004885;28;20446;-78
2022/05/24 02:50:56;;;;;;;5.95;2.50;;;;;;;12.24;76.09;100035.09;5005762;28;20032;-78
2022/05/24 02:53:21;;;;;;;8.95;2.33;;;;;;;12.23;75.95;100043.84;5008373;28;20029;-78
2022/05/24 02:55:47;;;;;;;6.68;2.50;;;;;;;12.20;75.83;100057.00;5006449;28;20473;-78
2022/05/24 02:58:12;;;;;;;6.88;2.38;;;;;;;12.19;75.73;100057.91;5007102;28;20389;-78
2022/05/24 03:00:38;;;;;;;5.65;1.98;;;;;;;12.20;76.07;100045.75;5007815;28;20346;-78
2022/05/24 03:03:03;;;;;;;5.70;2.30;;;;;;;12.18;75.66;100040.56;5008080;28;20034;-78
2022/05/24 03:05:29;;;;;;;6.07;2.13;;;;;;;12.19;76.03;100039.66;5009433;28;20440;-78
2022/05/24 03:10:39;;;;;;;5.43;2.00;;;;;;;12.16;75.77;100029.38;5008862;28;20168;-78
2022/05/24 03:15:50;;;;;;;7.75;2.40;;;;;;;12.15;76.22;100040.72;5008009;28;20060;-78
2022/05/24 03:18:17;;;;;;;7.15;2.00;;;;;;;12.12;75.91;100040.88;5007491;28;20434;-78
2022/05/24 03:20:43;;;;;;;9.40;2.60;;;;;;;12.11;76.17;100049.59;5007563;28;20021;-78
2022/05/24 03:23:09;;;;;;;6.40;2.15;;;;;;;12.10;75.98;100053.97;5006045;28;20041;-78
2022/05/24 03:25:35;;;;;;;8.70;2.50;;;;;;;12.09;76.18;100046.22;5007354;28;20091;-77
2022/05/24 03:28:03;;;;;;;7.40;2.45;;;;;;;12.06;76.31;100041.97;5007663;28;20045;-78
2022/05/24 03:30:28;;;;;;;6.03;2.40;;;;;;;12.08;75.85;100052.34;5009109;28;20022;-78
2022/05/24 03:32:53;;;;;;;6.80;2.28;;;;;;;12.05;76.17;100045.50;5007596;28;20037;-78
2022/05/24 03:35:19;;;;;;;5.75;2.17;;;;;;;12.05;76.15;100040.28;5009055;28;20064;-78
2022/05/24 03:37:44;;;;;;;6.13;2.30;;;;;;;12.04;76.26;100040.34;5009513;28;20481;-78
2022/05/24 03:40:10;;;;;;;4.53;2.10;;;;;;;12.04;76.63;100037.75;5005918;28;20033;-78
2022/05/24 03:42:37;;;;;;;5.97;2.15;;;;;;;12.04;76.37;100053.38;5007633;28;20082;-78
2022/05/24 03:45:04;;;;;;;6.43;2.17;;;;;;;12.05;76.44;100048.09;5008917;28;20029;-78
2022/05/24 03:47:30;;;;;;;5.97;2.15;;;;;;;12.07;76.69;100055.88;5006490;28;20038;-78
2022/05/24 03:49:55;;;;;;;5.70;2.35;;;;;;;12.07;76.73;100058.47;5007671;28;20027;-77
2022/05/24 03:52:20;;;;;;;5.15;2.20;;;;;;;12.07;76.42;100058.47;5008838;28;20145;-78
2022/05/24 03:54:46;;;;;;;5.88;2.53;;;;;;;12.08;76.43;100055.78;5010799;28;20032;-78
2022/05/24 03:59:55;;;;;;;7.88;2.70;;;;;;;12.08;76.80;100065.38;5011787;28;20109;-78
2022/05/24 04:02:21;;;;;;;5.53;2.80;;;;;;;12.09;76.58;100082.72;5014413;28;20105;-78
2022/05/24 04:04:46;;;;;;;7.20;3.10;;;;;;;12.08;76.79;100081.03;5014015;28;20025;-78
2022/05/24 04:07:12;;;;;;;9.30;2.95;;;;;;;12.09;76.67;100077.50;5014071;28;20156;-78
2022/05/24 04:09:37;;;;;;;6.22;3.03;;;;;;;12.09;76.95;100082.72;5014590;28;20358;-78
2022/05/24 04:12:03;;;;;;;6.38;3.35;;;;;;;12.10;76.77;100106.09;5014420;28;20021;-78
2022/05/24 04:14:29;;;;;;;7.72;3.70;;;;;;;12.11;76.82;100114.78;5015643;28;20021;-78
2022/05/24 04:16:55;;;;;;;10.48;4.30;;;;;;;12.12;76.74;100119.09;5013796;28;20389;-78
2022/05/24 04:19:20;;;;;;;7.68;3.90;;;;;;;12.12;77.12;100119.09;5014019;28;20480;-78
2022/05/24 04:21:45;;;;;;;7.03;3.88;;;;;;;12.14;76.98;100117.25;5014229;28;20057;-78
2022/05/24 04:24:11;;;;;;;8.52;3.95;;;;;;;12.14;76.50;100102.47;5013957;28;20064;-78
2022/05/24 04:26:36;;;;;;;5.60;3.90;;;;;;;12.13;76.13;100102.50;5015814;28;20034;-78
2022/05/24 04:29:01;;;;;;;7.57;3.85;;;;;;;12.12;76.33;100083.41;5015654;28;20079;-78
2022/05/24 04:31:27;;;;;;;7.22;4.10;;;;;;;12.11;76.53;100060.03;5012609;28;20037;-78
2022/05/24 04:33:52;;;;;;;6.97;3.72;;;;;;;12.12;76.58;100059.13;5015938;28;20402;-78
2022/05/24 04:36:17;;;;;;;11.52;4.10;;;;;;;12.13;76.39;100079.03;5013623;28;20026;-78
2022/05/24 04:38:42;;;;;;;6.07;3.55;;;;;;;12.14;76.11;100112.03;5015047;28;20049;-78
2022/05/24 04:43:52;;;;;;;6.28;3.13;;;;;;;12.12;76.45;100122.53;5011850;28;20092;-78
2022/05/24 04:46:17;;;;;;;7.25;3.25;;;;;;;12.13;76.42;100133.78;5014190;28;20030;-78
2022/05/24 04:48:43;;;;;;;8.65;3.30;;;;;;;12.13;75.72;100141.63;5015301;28;20068;-78
2022/05/24 04:51:08;;;;;;;7.32;3.10;;;;;;;12.12;76.00;100134.75;5012798;28;20378;-78
2022/05/24 04:53:33;;;;;;;6.47;2.97;;;;;;;12.09;76.00;100120.06;5010939;28;20079;-78
2022/05/24 04:55:59;;;;;;;6.72;2.65;;;;;;;12.08;76.23;100117.53;5012891;28;20025;-78
2022/05/24 04:58:24;;;;;;;4.72;2.78;;;;;;;12.06;76.09;100124.56;5012920;28;20037;-78
2022/05/24 05:00:50;;;;;;;6.22;2.58;;;;;;;12.05;76.22;100123.69;5009798;28;20076;-78
2022/05/24 05:03:17;;;;;;;5.63;2.63;;;;;;;12.06;75.84;100130.59;5011999;28;20026;-78
2022/05/24 05:05:43;;;;;;;6.95;2.40;;;;;;;12.03;76.06;100133.38;5013583;28;20022;-78
2022/05/24 05:08:08;;;;;;;9.13;2.60;;;;;;;12.02;76.16;100144.72;5011778;28;20113;-78
2022/05/24 05:10:34;;;;;;;10.48;2.65;;;;;;;12.02;76.04;100149.94;5010551;28;20050;-78
2022/05/24 05:13:06;;;;;;;8.93;2.25;;;;;;;12.02;76.06;100155.16;5012635;28;20466;-78
2022/05/24 05:15:34;;;;;;;5.13;2.20;;;;;;;12.04;76.16;100170.72;5011702;28;20109;-78
2022/05/24 05:18:11;;;;;;;6.97;2.25;;;;;;;12.06;75.84;100181.91;5149391;22;20061;-76
2022/05/24 05:20:41;;;;;;;6.90;2.65;;;;;;;12.05;75.65;100175.84;5011241;28;20053;-76
2022/05/24 05:23:09;;;;;;;4.13;1.90;;;;;;;12.04;75.72;100173.31;5012887;28;20045;-76
2022/05/24 05:25:34;;;;;;;4.93;2.20;;;;;;;12.03;75.88;100171.63;5012599;28;20032;-76
2022/05/24 05:28:00;;;;;;;6.63;2.10;;;;;;;12.03;76.50;100172.47;5013229;28;20030;-76
2022/05/24 05:33:09;;;;;;;6.03;2.15;;;;;;;12.07;76.14;100160.16;5012420;28;20049;-76
2022/05/24 05:35:35;;;;;;;6.90;2.20;;;;;;;12.08;75.75;100160.06;5011804;28;20061;-76
2022/05/24 05:38:01;;;;;;;5.03;2.08;;;;;;;12.07;75.88;100158.38;5012242;28;20586;-75
2022/05/24 05:40:26;;;;;;;5.95;2.17;;;;;;;12.08;75.30;100165.28;5011239;28;20033;-75
2022/05/24 05:42:51;;;;;;;6.05;2.30;;;;;;;12.08;75.13;100160.06;5018936;28;20083;-76
2022/05/24 05:45:17;;;;;;;6.32;2.30;;;;;;;12.10;75.32;100149.59;5012540;28;20452;-76
2022/05/24 05:47:42;;;;;;;10.73;2.50;;;;;;;12.09;75.07;100150.50;5011266;28;20032;-76
2022/05/24 05:50:08;;;;;;;4.38;1.90;;;;;;;12.11;75.06;100162.56;5013018;28;20500;-76
2022/05/24 05:52:34;;;;;;;7.25;2.63;;;;;;;12.11;75.07;100172.16;5022299;28;20040;-76
2022/05/24 05:54:59;;;;;;;6.20;2.10;;;;;;;12.11;74.84;100174.75;5026149;28;20108;-76
2022/05/24 05:57:24;;;;;;;7.38;1.95;;;;;;;12.09;74.83;100172.19;5013003;28;20534;-76
2022/05/24 05:59:51;;;;;;;5.63;2.10;;;;;;;12.08;74.81;100177.50;5011851;28;20029;-76
2022/05/24 06:02:17;;;;;;;5.65;2.10;;;;;;;12.08;74.90;100195.75;5010677;28;20060;-76
2022/05/24 06:04:42;;;;;;;6.38;2.13;;;;;;;12.06;74.85;100203.63;5010029;28;20033;-76
2022/05/24 06:07:08;;;;;;;5.70;2.10;;;;;;;12.06;74.70;100211.44;5025802;28;20048;-77
2022/05/24 06:09:33;;;;;;;6.13;1.90;;;;;;;12.05;74.34;100222.78;5012533;28;20424;-76
2022/05/24 06:11:59;;;;;;;4.43;2.33;;;;;;;12.04;75.02;100220.25;5011856;28;20030;-76
2022/05/24 06:14:24;;;;;;;5.95;1.90;;;;;;;12.03;75.58;100232.44;5012264;28;20033;-77
2022/05/24 06:16:49;;;;;;;5.80;2.00;;;;;;;12.05;74.72;100228.00;5010712;28;20034;-77
2022/05/24 06:19:15;;;;;;;5.80;2.22;;;;;;;12.06;74.23;100226.25;5009499;28;20583;-78
2022/05/24 06:21:40;;;;;;;5.13;1.70;;;;;;;12.05;74.84;100222.78;5003425;28;20347;-78
2022/05/24 06:24:07;;;;;;;9.90;2.13;;;;;;;12.06;74.99;100228.84;5004147;28;20835;-78
2022/05/24 06:26:33;;;;;;;7.43;2.03;;;;;;;12.07;74.16;100218.34;5002331;28;20116;-78
2022/05/24 06:28:59;;;;;;;6.32;1.88;;;;;;;12.11;74.28;100221.69;5003075;28;20121;-79
2022/05/24 06:31:25;;;;;;;6.10;1.70;;;;;;;12.14;74.61;100225.00;5003291;28;20060;-78
2022/05/24 06:33:50;;;;;;;8.10;2.00;;;;;;;12.20;74.25;100230.88;5002080;28;20080;-78
2022/05/24 06:36:16;;;;;;;6.68;1.70;;;;;;;12.26;73.29;100235.81;5004026;28;21501;-78
2022/05/24 06:38:41;;;;;;;4.35;1.60;;;;;;;12.34;73.73;100230.28;5001696;28;20033;-78
2022/05/24 06:41:06;;;;;;;4.88;1.63;;;;;;;12.39;73.46;100226.56;5005698;28;20037;-79
2022/05/24 06:43:33;;;;;;;6.80;1.67;;;;;;;12.42;72.78;100233.41;4999707;28;20722;-78
2022/05/24 06:45:59;;;;;;;8.68;2.20;;;;;;;12.45;73.45;100246.34;5006119;28;20456;-78
2022/05/24 06:48:24;;;;;;;9.23;2.17;;;;;;;12.50;72.29;100236.53;5004246;28;20069;-78
2022/05/24 06:50:49;;;;;;;6.25;2.10;;;;;;;12.52;73.58;100258.19;5004075;28;20032;-78
2022/05/24 06:53:15;;;;;;;5.47;1.88;;;;;;;12.59;72.85;100259.63;5005643;28;20100;-78
2022/05/24 06:55:40;;;;;;;3.45;1.52;;;;;;;12.67;71.75;100266.25;5004243;28;20029;-78
2022/05/24 06:58:05;;;;;;;7.47;1.88;;;;;;;12.72;71.18;100265.13;5007805;28;20026;-79
2022/05/24 07:03:16;;;;;;;3.92;1.77;;;;;;;12.82;71.44;100283.00;5012030;28;20072;-78
2022/05/24 07:05:43;;;;;;;4.22;1.30;;;;;;;12.87;70.31;100275.84;5016372;28;20383;-77
2022/05/24 07:08:08;;;;;;;6.03;1.77;;;;;;;12.95;71.28;100280.72;5012143;28;20025;-77
2022/05/24 07:10:35;;;;;;;3.67;1.42;;;;;;;13.05;71.22;100272.41;4991032;28;20550;-77
2022/05/24 07:13:06;;;;;;;2.90;1.27;;;;;;;13.13;68.91;100285.09;4995616;28;20022;-80
2022/05/24 07:15:32;;;;;;;4.85;1.30;;;;;;;13.18;67.83;100293.56;5011989;28;20033;-79
2022/05/24 07:17:58;;;;;;;4.18;1.10;;;;;;;13.23;67.89;100300.34;4978446;28;20056;-78
2022/05/24 07:20:25;;;;;;;5.90;1.30;;;;;;;13.26;67.93;100302.81;5011541;28;20029;-76
2022/05/24 07:22:51;;;;;;;5.32;1.33;;;;;;;13.25;68.16;100294.13;5011629;28;20029;-77
2022/05/24 07:25:18;;;;;;;8.00;1.45;;;;;;;13.27;67.83;100304.53;5013321;28;20080;-81
2022/05/24 07:27:44;;;;;;;5.00;1.63;;;;;;;13.31;69.03;100304.31;4992294;28;20040;-79
2022/05/24 07:30:10;;;;;;;4.22;1.70;;;;;;;13.39;67.12;100303.94;4997990;28;20022;-78
2022/05/24 07:32:35;;;;;;;4.63;1.35;;;;;;;13.41;67.34;100307.38;5006574;28;20033;-78
2022/05/24 07:35:01;;;;;;;5.80;1.60;;;;;;;13.45;66.78;100308.94;4997629;28;20096;-79
2022/05/24 07:37:26;;;;;;;5.28;1.88;;;;;;;13.51;66.16;100313.84;5017157;28;20026;-79
2022/05/24 07:48:04;;;;;;;4.95;1.80;;;;;;;13.56;64.69;100323.25;5021334;28;20068;-78
2022/05/24 07:50:29;;;;;;;4.45;1.75;;;;;;;13.55;64.59;100305.88;5023215;28;20022;-78
2022/05/24 07:52:54;;;;;;;3.05;1.50;;;;;;;13.59;64.89;100325.72;5021775;28;20428;-78
2022/05/24 07:55:24;;;;;;;3.75;1.75;;;;;;;13.61;65.57;100321.28;5020690;28;20113;-78
2022/05/24 07:57:49;;;;;;;5.43;1.92;;;;;;;13.64;64.75;100313.31;5017676;28;21561;-78
2022/05/24 08:00:15;;;;;;;5.35;2.40;;;;;;;13.66;65.13;100320.13;5013227;28;20052;-81
2022/05/24 08:02:41;;;;;;;5.38;2.60;;;;;;;13.71;64.72;100327.75;5018564;28;20399;-79
2022/05/24 08:05:08;;;;;;;5.05;2.53;;;;;;;13.80;64.10;100324.72;5019993;28;20057;-77
2022/05/24 08:07:33;;;;;;;5.40;2.30;;;;;;;13.89;64.82;100319.97;5028970;28;20104;-78
2022/05/24 08:09:58;;;;;;;5.22;2.13;;;;;;;13.96;64.71;100318.75;5020795;28;20585;-77
2022/05/24 08:12:24;;;;;;;5.50;2.05;;;;;;;14.01;63.70;100321.97;5005209;28;20735;-78
2022/05/24 08:14:50;;;;;;;6.85;1.85;;;;;;;14.03;63.97;100321.91;5016620;28;20021;-77
2022/05/24 08:17:15;;;;;;;4.55;1.60;;;;;;;14.04;63.39;100324.44;5003083;28;20853;-78
2022/05/24 08:19:41;;;;;;;6.38;1.88;;;;;;;14.06;62.79;100335.69;5000712;28;20053;-78
2022/05/24 08:22:07;;;;;;;6.72;2.20;;;;;;;14.04;62.38;100331.47;5004754;28;20038;-78
2022/05/24 08:24:33;;;;;;;4.78;1.98;;;;;;;13.99;62.94;100334.31;5003522;28;20440;-77
2022/05/24 08:26:59;;;;;;;3.65;1.80;;;;;;;14.05;63.30;100344.44;5005893;28;20027;-78
2022/05/24 08:29:25;;;;;;;5.60;2.03;;;;;;;14.12;64.09;100337.16;5003552;28;20023;-78
2022/05/24 08:31:50;;;;;;;5.05;1.98;;;;;;;14.21;63.09;100346.31;4999681;28;20109;-77
2022/05/24 08:34:16;;;;;;;4.82;2.22;;;;;;;14.19;63.36;100337.69;5004168;28;20357;-78
2022/05/24 08:36:41;;;;;;;6.50;2.65;;;;;;;14.16;63.59;100348.34;5021979;28;20033;-78
2022/05/24 08:39:06;;;;;;;4.78;2.95;;;;;;;14.14;62.90;100355.41;5002640;28;20088;-78
2022/05/24 08:41:42;;;;;;;7.13;3.80;;;;;;;14.11;62.04;100362.47;5000493;28;20117;-78
2022/05/24 08:50:08;;;;;;;7.35;3.38;;;;;;;14.31;61.18;100372.88;4996962;28;20539;-78
2022/05/24 08:52:39;;;;;;;6.28;3.70;;;;;;;14.26;60.97;100378.34;4992415;28;20477;-79
2022/05/24 08:55:06;;;;;;;7.13;3.60;;;;;;;14.18;61.85;100377.84;4995887;28;20029;-77
2022/05/24 08:57:54;;;;;;;5.57;3.38;;;;;;;14.08;62.15;100386.16;4998036;28;20157;-76
2022/05/24 09:00:32;;;;;;;6.07;3.40;;;;;;;13.98;62.31;100382.31;5008447;28;20021;-77
2022/05/24 09:02:58;;;;;;;5.53;3.00;;;;;;;13.90;61.97;100389.66;4995515;28;20477;-77
2022/05/24 09:05:33;;;;;;;4.95;3.08;;;;;;;13.83;62.59;100391.69;4995137;28;20110;-76
2022/05/24 09:08:20;;;;;;;7.20;3.10;;;;;;;13.81;62.76;100397.03;4999617;28;20511;-76
2022/05/24 09:10:52;;;;;;;5.50;2.58;;;;;;;13.82;62.56;100403.06;4995266;28;20029;-78
2022/05/24 09:13:51;;;;;;;5.25;2.50;;;;;;;13.90;63.08;100410.56;4996169;28;20461;-78
2022/05/24 09:16:17;;;;;;;6.03;2.67;;;;;;;13.99;63.14;100415.38;4994789;28;20045;-78
2022/05/24 09:18:48;;;;;;;8.70;2.40;;;;;;;14.09;63.13;100414.00;5015965;28;20037;-79
2022/05/24 09:21:19;;;;;;;3.72;2.00;;;;;;;14.22;63.57;100405.56;5019351;28;20062;-80
2022/05/24 09:23:50;;;;;;;6.90;1.98;;;;;;;14.32;62.64;100416.44;5012095;28;20033;-80
2022/05/24 09:26:20;;;;;;;3.58;1.60;;;;;;;14.34;61.84;100417.22;5014074;28;20084;-77
2022/05/24 09:28:58;;;;;;;6.15;1.70;;;;;;;14.36;61.69;100424.06;5015977;28;20036;-77
2022/05/24 09:31:38;;;;;;;4.82;1.90;;;;;;;14.42;61.42;100431.63;5013727;28;20037;-80
2022/05/24 09:34:19;;;;;;;4.07;1.90;;;;;;;14.46;60.47;100434.09;5011716;28;20025;-77
2022/05/24 09:36:54;;;;;;;;;;;;;;;14.55;62.31;100444.13;5014513;28;20021;-77
2022/05/24 09:39:38;;;;;;;5.35;1.80;;;;;;;14.55;61.11;100444.97;5016446;28;19947;-77
2022/05/24 09:42:10;;;;;;;2.78;2.05;;;;;;;14.55;59.58;100444.13;5015171;28;20029;-79
2022/05/24 09:45:00;;;;;;;4.93;2.80;;;;;;;14.62;60.19;100445.53;4999175;28;20132;-76
2022/05/24 09:47:33;;;;;;;4.65;3.00;;;;;;;14.72;59.93;100452.00;4997464;28;20022;-79
2022/05/24 09:50:16;;;;;;;5.60;3.38;;;;;;;14.77;60.17;100464.03;5012803;28;20026;-79
2022/05/24 09:53:03;;;;;;;5.68;4.13;;;;;;;14.68;59.26;100462.72;5011161;28;20035;-76
2022/05/24 09:55:39;;;;;;;5.95;4.18;;;;;;;14.64;59.62;100462.00;5012491;28;20028;-77
2022/05/24 09:58:19;;;;;;;7.43;4.45;;;;;;;14.62;60.00;100466.47;5012549;28;20033;-77
2022/05/24 10:00:59;;;;;;;8.52;4.47;;;;;;;14.57;59.31;100471.06;5007663;28;20029;-77
2022/05/24 10:03:28;;;;;;;7.07;3.97;;;;;;;14.52;58.43;100473.06;5011156;28;20046;-81
2022/05/24 10:06:10;;;;;;;5.63;4.30;;;;;;;14.54;59.26;100463.34;5013174;28;20030;-79
2022/05/24 10:08:43;;;;;;;6.38;4.35;;;;;;;14.64;59.66;100456.78;5015331;28;20033;-80
2022/05/24 10:11:38;;;;;;;6.05;4.63;;;;;;;14.74;59.32;100461.56;5003050;28;20036;-78
2022/05/24 10:14:22;;;;;;;6.78;5.43;;;;;;;14.83;59.69;100466.38;5003417;28;20021;-79
2022/05/24 10:16:55;;;;;;;6.03;5.43;;;;;;;14.83;57.94;100454.09;5012944;28;20030;-77
2022/05/24 10:19:30;;;;;;;5.75;5.15;;;;;;;14.96;59.16;100464.81;5011147;28;20025;-77
2022/05/24 10:22:07;;;;;;;6.32;5.50;;;;;;;15.08;58.79;100472.97;4987478;28;20033;-77
2022/05/24 10:24:51;;;;;;;7.70;5.40;;;;;;;15.12;57.52;100462.25;4988636;28;20088;-77
2022/05/24 10:27:38;;;;;;;6.97;5.60;;;;;;;15.09;58.12;100472.91;5006093;28;20038;-78
2022/05/24 10:30:13;;;;;;;9.15;4.95;;;;;;;15.07;57.56;100485.25;5005810;28;20513;-79
2022/05/24 10:39:31;;;;;;;6.82;5.15;;;;;;;15.01;57.58;100496.88;5007568;28;20498;-77
2022/05/24 10:42:18;;;;;;;5.25;4.57;;;;;;;14.96;57.95;100511.09;5008000;28;20029;-80
2022/05/24 10:44:55;;;;;;;3.67;3.13;;;;;;;14.89;57.50;100513.19;5007967;28;20034;-79
2022/05/24 10:47:39;;;;;;;3.55;2.70;;;;;;;14.79;57.76;100519.81;5004058;28;20469;-77
2022/05/24 10:50:13;;;;;;;6.45;3.08;;;;;;;14.70;59.94;100519.31;5006500;28;20094;-77
2022/05/24 10:52:41;;;;;;;7.07;3.03;;;;;;;14.74;59.45;100521.78;5006177;28;20041;-77
2022/05/24 10:55:19;;;;;;;4.68;3.60;;;;;;;14.76;59.60;100512.09;5007800;28;20034;-78
2022/05/24 10:57:59;;;;;;;3.85;2.97;;;;;;;14.80;58.85;100508.41;5007889;28;20052;-80
2022/05/24 11:00:34;;;;;;;13.40;2.60;;;;;;;14.93;60.73;100506.06;5006532;28;20473;-76
2022/05/24 11:03:10;;;;;;;6.45;2.45;;;;;;;15.05;58.51;100515.91;5009969;28;20044;-78
2022/05/24 11:05:48;;;;;;;4.00;2.20;;;;;;;15.02;59.56;100518.69;5008824;28;20032;-78
2022/05/24 11:08:37;;;;;;;4.80;2.78;;;;;;;14.92;58.32;100520.06;5008943;28;20029;-75
2022/05/24 11:11:33;;;;;;;3.35;2.45;;;;;;;14.82;59.56;100510.03;5006107;28;20607;-78
2022/05/24 11:14:24;;;;;;;5.47;2.67;;;;;;;14.77;59.90;100512.03;5006680;28;20065;-78
2022/05/24 11:16:52;;;;;;;8.45;2.50;;;;;;;14.80;59.57;100500.56;5008185;28;20858;-77
2022/05/24 11:19:40;;;;;;;3.35;2.20;;;;;;;14.88;59.82;100514.09;5006303;28;20520;-77
2022/05/24 11:22:32;;;;;;;3.35;2.42;;;;;;;14.89;59.39;100504.50;5010428;28;20376;-78
2022/05/24 11:25:00;;;;;;;2.80;2.05;;;;;;;14.80;58.98;100511.88;5013240;28;20018;-80
2022/05/24 11:27:30;;;;;;;2.70;1.85;;;;;;;14.76;59.85;100515.59;4991432;28;20048;-77
2022/05/24 11:30:08;;;;;;;3.35;2.28;;;;;;;14.80;59.77;100519.72;5012234;28;20029;-77
2022/05/24 11:32:38;;;;;;;3.58;2.67;;;;;;;14.96;59.21;100521.59;5013876;28;20048;-76
2022/05/24 11:35:24;;;;;;;3.35;2.58;;;;;;;15.09;58.27;100527.94;5007449;28;20038;-77
2022/05/24 11:37:55;;;;;;;3.05;2.75;;;;;;;15.23;58.13;100519.38;5012193;28;20044;-74
2022/05/24 11:40:32;;;;;;;3.17;2.88;;;;;;;15.35;58.87;100531.00;4999410;28;20104;-75
2022/05/24 11:43:00;;;;;;;5.07;4.00;;;;;;;15.52;57.46;100518.81;5010761;28;20091;-78
2022/05/24 11:45:28;;;;;;;5.82;3.88;;;;;;;15.71;59.49;100524.78;5010497;28;20026;-81
2022/05/24 11:47:54;;;;;;;6.30;4.05;;;;;;;15.87;57.94;100522.25;5011908;28;20030;-80
2022/05/24 11:50:31;;;;;;;5.10;3.40;;;;;;;15.98;57.39;100518.19;5011581;28;20087;-77
2022/05/24 11:53:21;;;;;;;3.25;2.95;;;;;;;15.98;57.80;100531.31;5006331;28;20053;-77
2022/05/24 11:55:56;;;;;;;4.25;2.50;;;;;;;15.87;55.15;100530.13;4985464;28;20061;-79
2022/05/24 11:58:21;;;;;;;4.35;2.20;;;;;;;15.68;55.80;100539.84;5002805;28;20045;-78
2022/05/24 12:01:03;;;;;;;2.45;1.70;;;;;;;15.56;57.04;100544.78;5004672;28;20057;-77
2022/05/24 12:10:04;;;;;;;2.47;2.28;;;;;;;15.78;56.07;100551.53;5006751;28;20124;-78
2022/05/24 12:12:36;;;;;;;3.00;2.70;;;;;;;15.76;55.26;100553.41;4986655;28;20396;-78
2022/05/24 12:15:21;;;;;;;3.50;3.20;;;;;;;15.82;56.12;100547.84;5004254;28;20558;-78
2022/05/24 12:18:11;;;;;;;6.03;3.88;;;;;;;15.97;52.92;100556.69;5002525;28;20245;-78
2022/05/24 12:20:36;;;;;;;3.97;3.60;;;;;;;16.14;53.19;100553.19;5006964;28;20030;-78
2022/05/24 12:23:04;;;;;;;3.90;3.60;;;;;;;16.26;51.61;100561.31;5008200;28;20051;-79
2022/05/24 12:25:51;;;;;;;3.20;2.90;;;;;;;16.31;53.48;100559.28;5008277;28;20444;-78
2022/05/24 12:28:18;;;;;;;4.32;2.85;;;;;;;16.27;51.16;100557.75;5006432;28;20058;-78